createdAt,value
2018-09-13T00:00:24.592Z,11.60
2018-09-13T00:02:55.243Z,10.80
2018-09-13T00:05:25.943Z,11.30
2018-09-13T00:07:56.807Z,11.60
2018-09-13T00:10:27.532Z,11.10
2018-09-13T00:12:58.437Z,11.47
2018-09-13T00:15:29.240Z,10.50
2018-09-13T00:18:00.078Z,10.53
2018-09-13T00:20:30.925Z,10.20
2018-09-13T00:23:01.644Z,10.00
2018-09-13T00:25:32.588Z,10.40
2018-09-13T00:28:03.331Z,10.10
2018-09-13T00:30:34.008Z,10.30
2018-09-13T00:33:04.721Z,10.97
2018-09-13T00:35:35.481Z,10.73
2018-09-13T00:38:06.144Z,10.80
2018-09-13T00:40:36.988Z,10.70
2018-09-13T00:43:07.811Z,11.27
2018-09-13T00:45:38.601Z,11.07
2018-09-13T00:48:09.358Z,11.17
2018-09-13T00:50:40.162Z,11.43
2018-09-13T00:53:16.591Z,10.30
2018-09-13T00:55:47.450Z,11.60
2018-09-13T00:58:20.004Z,10.90
2018-09-13T01:00:51.012Z,11.50
2018-09-13T01:03:21.760Z,11.63
2018-09-13T01:05:52.678Z,11.63
2018-09-13T01:08:24.481Z,11.23
2018-09-13T01:10:55.339Z,12.23
2018-09-13T01:13:26.003Z,11.87
2018-09-13T01:15:56.703Z,11.80
2018-09-13T01:18:27.385Z,12.23
2018-09-13T01:20:58.196Z,12.47
2018-09-13T01:23:28.948Z,12.40
2018-09-13T01:26:00.173Z,12.83
2018-09-13T01:28:31.736Z,11.40
2018-09-13T01:31:03.805Z,11.87
2018-09-13T01:33:34.653Z,11.23
2018-09-13T01:36:05.408Z,11.87
2018-09-13T01:38:36.147Z,9.87
2018-09-13T01:41:07.028Z,10.30
2018-09-13T01:43:37.702Z,10.40
2018-09-13T01:46:08.528Z,11.40
2018-09-13T01:48:39.213Z,10.60
2018-09-13T01:51:10.732Z,11.20
2018-09-13T01:53:41.742Z,10.33
2018-09-13T01:56:12.559Z,10.83
2018-09-13T01:58:43.628Z,10.53
2018-09-13T02:01:14.403Z,11.20
2018-09-13T02:03:46.945Z,10.83
2018-09-13T02:06:20.422Z,12.03
2018-09-13T02:11:29.529Z,11.60
2018-09-13T02:14:00.345Z,11.97
2018-09-13T02:16:31.244Z,11.23
2018-09-13T02:19:02.028Z,11.53
2018-09-13T02:21:35.326Z,11.90
2018-09-13T02:24:06.140Z,11.07
2018-09-13T02:26:36.991Z,10.30
2018-09-13T02:29:08.012Z,9.77
2018-09-13T02:31:38.826Z,10.20
2018-09-13T02:34:09.574Z,9.97
2018-09-13T02:36:40.670Z,9.53
2018-09-13T02:39:11.827Z,9.87
2018-09-13T02:41:42.800Z,10.30
2018-09-13T02:44:13.512Z,9.80
2018-09-13T02:46:45.497Z,10.10
2018-09-13T02:49:16.343Z,9.83
2018-09-13T02:51:47.007Z,9.80
2018-09-13T02:54:17.843Z,9.70
2018-09-13T02:56:48.649Z,10.13
2018-09-13T02:59:19.436Z,9.83
2018-09-13T03:01:50.282Z,9.83
2018-09-13T03:04:21.084Z,10.30
2018-09-13T03:06:51.869Z,9.27
2018-09-13T03:09:22.686Z,9.30
2018-09-13T03:11:53.618Z,9.67
2018-09-13T03:14:24.379Z,9.37
2018-09-13T03:16:55.124Z,9.10
2018-09-13T03:19:25.908Z,9.63
2018-09-13T03:21:56.765Z,9.43
2018-09-13T03:24:27.668Z,8.50
2018-09-13T03:26:58.298Z,8.83
2018-09-13T03:29:29.061Z,9.17
2018-09-13T03:31:59.808Z,9.90
2018-09-13T03:34:30.620Z,9.67
2018-09-13T03:37:01.342Z,10.37
2018-09-13T03:39:32.083Z,11.97
2018-09-13T03:42:03.022Z,12.03
2018-09-13T03:44:33.717Z,12.03
2018-09-13T03:47:04.676Z,12.17
2018-09-13T03:49:35.298Z,12.93
2018-09-13T03:52:06.048Z,12.10
2018-09-13T03:54:36.913Z,13.77
2018-09-13T03:57:07.757Z,13.00
2018-09-13T03:59:38.598Z,13.60
2018-09-13T04:02:09.479Z,12.90
2018-09-13T04:04:40.228Z,12.63
2018-09-13T04:07:11.063Z,12.40
2018-09-13T04:09:41.810Z,12.30
2018-09-13T04:12:12.656Z,12.20
2018-09-13T04:14:43.365Z,12.93
2018-09-13T04:17:14.125Z,12.93
2018-09-13T04:19:46.038Z,14.20
2018-09-13T04:22:17.496Z,13.97
2018-09-13T04:24:48.172Z,14.10
2018-09-13T04:27:19.013Z,14.53
2018-09-13T04:29:49.737Z,15.10
2018-09-13T04:32:28.048Z,13.30
2018-09-13T04:34:58.829Z,14.00
2018-09-13T04:37:29.678Z,14.87
2018-09-13T04:40:00.403Z,15.77
2018-09-13T04:42:31.182Z,16.60
2018-09-13T04:45:01.928Z,16.87
2018-09-13T04:47:32.780Z,16.23
2018-09-13T04:50:03.794Z,16.57
2018-09-13T04:52:34.722Z,17.17
2018-09-13T04:55:05.566Z,17.13
2018-09-13T04:57:36.384Z,16.30
2018-09-13T05:00:07.348Z,16.30
2018-09-13T05:02:38.412Z,15.67
2018-09-13T05:05:09.549Z,14.30
2018-09-13T05:07:40.397Z,15.13
2018-09-13T05:10:11.247Z,13.93
2018-09-13T05:12:43.139Z,14.30
2018-09-13T05:15:14.929Z,12.60
2018-09-13T05:17:48.876Z,13.37
2018-09-13T05:20:22.979Z,14.23
2018-09-13T05:22:54.561Z,13.37
2018-09-13T05:25:30.646Z,13.10
2018-09-13T05:28:02.716Z,12.20
2018-09-13T05:30:34.646Z,11.00
2018-09-13T05:33:07.112Z,10.93
2018-09-13T05:35:39.173Z,12.07
2018-09-13T05:38:10.005Z,12.07
2018-09-13T05:40:47.376Z,11.27
2018-09-13T05:43:20.962Z,11.20
2018-09-13T05:45:56.504Z,10.80
2018-09-13T05:48:27.253Z,10.47
2018-09-13T05:50:58.747Z,10.13
2018-09-13T05:53:29.646Z,9.93
2018-09-13T05:56:01.711Z,11.03
2018-09-13T05:58:34.993Z,10.20
2018-09-13T06:01:06.397Z,11.13
2018-09-13T06:03:37.470Z,11.07
2018-09-13T06:06:09.224Z,11.00
2018-09-13T06:08:41.263Z,10.57
2018-09-13T06:11:12.037Z,10.03
2018-09-13T06:13:46.419Z,10.33
2018-09-13T06:16:17.148Z,10.40
2018-09-13T06:18:48.090Z,9.80
2018-09-13T06:21:18.808Z,10.17
2018-09-13T06:23:49.517Z,10.20
2018-09-13T06:26:20.345Z,9.40
2018-09-13T06:28:51.067Z,9.57
2018-09-13T06:31:22.009Z,9.60
2018-09-13T06:33:52.806Z,9.13
2018-09-13T06:36:23.615Z,8.43
2018-09-13T06:38:54.641Z,8.73
2018-09-13T06:41:29.034Z,7.73
2018-09-13T06:44:07.329Z,7.97
2018-09-13T06:46:38.135Z,8.40
2018-09-13T06:49:09.161Z,7.90
2018-09-13T06:54:42.798Z,8.10
2018-09-13T06:57:13.583Z,7.87
2018-09-13T06:59:44.416Z,7.90
2018-09-13T07:02:16.132Z,8.77
2018-09-13T07:04:49.777Z,8.10
2018-09-13T07:07:20.994Z,8.30
2018-09-13T07:09:51.722Z,7.43
2018-09-13T07:12:24.481Z,7.23
2018-09-13T07:14:55.237Z,7.93
2018-09-13T07:17:26.093Z,8.20
2018-09-13T07:19:57.234Z,7.97
2018-09-13T07:22:30.930Z,7.70
2018-09-13T07:25:02.896Z,8.43
2018-09-13T07:27:34.633Z,8.63
2018-09-13T07:30:06.013Z,7.47
2018-09-13T07:32:44.937Z,7.70
2018-09-13T07:35:15.865Z,7.60
2018-09-13T07:37:47.434Z,8.20
2018-09-13T07:40:18.571Z,8.97
2018-09-13T07:42:49.483Z,10.13
2018-09-13T07:45:20.261Z,12.07
2018-09-13T07:47:51.987Z,11.77
2018-09-13T07:50:23.174Z,12.13
2018-09-13T07:52:54.183Z,11.37
2018-09-13T07:55:25.974Z,10.07
2018-09-13T07:57:56.719Z,10.17
2018-09-13T08:00:27.534Z,11.13
2018-09-13T08:02:58.415Z,11.07
2018-09-13T08:05:29.503Z,11.33
2018-09-13T08:08:00.228Z,10.43
2018-09-13T08:10:31.016Z,11.27
2018-09-13T08:13:01.923Z,11.67
2018-09-13T08:15:32.678Z,11.70
2018-09-13T08:18:03.600Z,11.90
2018-09-13T08:20:34.392Z,11.20
2018-09-13T08:23:05.544Z,11.77
2018-09-13T08:25:54.902Z,11.00
2018-09-13T08:28:50.677Z,10.00
2018-09-13T08:31:52.311Z,10.17
2018-09-13T08:37:49.484Z,10.90
2018-09-13T08:40:36.509Z,11.17
2018-09-13T08:43:11.820Z,12.53
2018-09-13T08:45:43.199Z,12.80
2018-09-13T08:48:14.033Z,12.20
2018-09-13T08:50:45.140Z,14.87
2018-09-13T08:53:15.966Z,15.73
2018-09-13T08:55:47.930Z,15.90
2018-09-13T08:58:19.619Z,17.03
2018-09-13T09:00:51.953Z,16.90
2018-09-13T09:03:24.250Z,17.80
2018-09-13T09:05:55.759Z,18.10
2018-09-13T09:08:27.923Z,17.00
2018-09-13T09:11:02.025Z,17.30
2018-09-13T09:13:32.913Z,16.80
2018-09-13T09:16:05.288Z,17.07
2018-09-13T09:18:36.084Z,16.60
2018-09-13T09:21:10.268Z,16.23
2018-09-13T09:23:49.644Z,16.00
2018-09-13T09:26:22.335Z,15.77
2018-09-13T09:28:53.243Z,14.33
2018-09-13T09:31:31.283Z,12.50
2018-09-13T09:34:02.030Z,14.00
2018-09-13T09:36:32.880Z,13.33
2018-09-13T09:39:05.929Z,13.80
2018-09-13T09:41:36.862Z,13.33
2018-09-13T09:44:07.969Z,12.53
2018-09-13T09:46:39.157Z,13.83
2018-09-13T09:49:09.936Z,13.80
2018-09-13T09:51:48.741Z,13.23
2018-09-13T09:54:20.789Z,14.30
2018-09-13T09:56:51.603Z,14.60
2018-09-13T09:59:22.408Z,15.33
2018-09-13T10:01:59.299Z,14.20
2018-09-13T10:04:30.554Z,14.97
2018-09-13T10:07:01.470Z,14.87
2018-09-13T10:09:32.242Z,14.30
2018-09-13T10:12:03.066Z,17.87
2018-09-13T10:14:33.855Z,14.97
2018-09-13T10:17:10.672Z,16.13
2018-09-13T10:19:46.891Z,13.83
2018-09-13T10:22:22.659Z,13.70
2018-09-13T10:24:58.533Z,12.87
2018-09-13T10:27:34.427Z,12.70
2018-09-13T10:30:11.354Z,12.10
2018-09-13T10:32:47.268Z,12.67
2018-09-13T10:35:23.325Z,11.03
2018-09-13T10:37:59.303Z,11.20
2018-09-13T10:40:35.104Z,10.50
2018-09-13T10:43:10.949Z,11.30
2018-09-13T10:45:46.906Z,10.80
2018-09-13T10:48:22.820Z,9.23
2018-09-13T10:50:58.888Z,8.20
2018-09-13T10:53:29.765Z,7.17
2018-09-13T10:56:00.508Z,7.27
2018-09-13T10:58:31.481Z,6.50
2018-09-13T11:01:02.285Z,5.87
2018-09-13T11:03:33.034Z,5.80
2018-09-13T11:06:03.861Z,5.80
2018-09-13T11:08:34.715Z,6.17
2018-09-13T11:11:05.632Z,5.83
2018-09-13T11:13:43.256Z,5.80
2018-09-13T11:16:14.097Z,5.60
2018-09-13T11:18:44.851Z,6.97
2018-09-13T11:21:15.661Z,7.03
2018-09-13T11:23:47.805Z,8.73
2018-09-13T11:26:18.625Z,7.37
2018-09-13T11:28:49.444Z,7.13
2018-09-13T11:31:20.245Z,7.20
2018-09-13T11:33:51.025Z,6.20
2018-09-13T11:36:21.815Z,5.40
2018-09-13T11:38:54.657Z,6.23
2018-09-13T11:41:25.420Z,5.67
2018-09-13T11:43:58.017Z,5.10
2018-09-13T11:46:42.402Z,4.60
2018-09-13T11:49:14.395Z,4.40
2018-09-13T11:51:46.228Z,4.40
2018-09-13T11:54:16.945Z,4.50
2018-09-13T11:56:47.649Z,5.00
2018-09-13T11:59:18.353Z,4.50
2018-09-13T12:01:49.124Z,4.90
2018-09-13T12:04:19.917Z,4.73
2018-09-13T12:06:50.682Z,5.10
2018-09-13T12:09:21.650Z,4.50
2018-09-13T12:11:52.837Z,4.70
2018-09-13T12:14:23.595Z,4.30
2018-09-13T12:16:54.401Z,4.30
2018-09-13T12:19:25.229Z,5.60
2018-09-13T12:21:56.178Z,4.13
2018-09-13T12:24:26.890Z,3.60
2018-09-13T12:26:57.781Z,3.80
2018-09-13T12:29:28.917Z,3.40
2018-09-13T12:31:59.856Z,4.33
2018-09-13T12:34:30.643Z,3.87
2018-09-13T12:37:01.448Z,4.93
2018-09-13T12:39:33.265Z,4.00
2018-09-13T12:42:04.083Z,4.23
2018-09-13T12:44:35.027Z,4.20
2018-09-13T12:47:05.877Z,4.10
2018-09-13T12:49:37.061Z,3.53
2018-09-13T12:52:07.895Z,3.90
2018-09-13T12:54:38.667Z,3.60
2018-09-13T12:57:09.592Z,3.60
2018-09-13T12:59:40.860Z,3.50
2018-09-13T13:02:11.700Z,4.00
2018-09-13T13:04:42.500Z,3.20
2018-09-13T13:07:13.170Z,3.73
2018-09-13T13:09:43.935Z,3.43
2018-09-13T13:12:14.891Z,3.17
2018-09-13T13:14:45.830Z,3.53
2018-09-13T13:17:16.590Z,3.00
2018-09-13T13:19:47.519Z,2.93
2018-09-13T13:22:18.351Z,2.90
2018-09-13T13:24:49.080Z,2.70
2018-09-13T13:27:19.859Z,3.07
2018-09-13T13:29:50.613Z,3.30
2018-09-13T13:32:21.388Z,3.10
2018-09-13T13:34:52.100Z,3.17
2018-09-13T13:37:22.793Z,2.97
2018-09-13T13:39:53.564Z,3.63
2018-09-13T13:42:24.270Z,3.30
2018-09-13T13:44:54.967Z,3.27
2018-09-13T13:47:25.686Z,3.10
2018-09-13T13:49:56.405Z,3.17
2018-09-13T13:52:27.094Z,3.43
2018-09-13T13:54:57.960Z,4.17
2018-09-13T13:57:28.708Z,3.30
2018-09-13T13:59:59.487Z,4.10
2018-09-13T14:02:30.231Z,3.50
2018-09-13T14:05:01.238Z,3.70
2018-09-13T14:07:32.013Z,4.40
2018-09-13T14:10:02.781Z,4.10
2018-09-13T14:12:33.523Z,4.07
2018-09-13T14:15:04.274Z,4.10
2018-09-13T14:17:35.080Z,4.00
2018-09-13T14:20:05.984Z,3.90
2018-09-13T14:22:36.719Z,4.20
2018-09-13T14:25:08.280Z,4.40
2018-09-13T14:27:39.057Z,5.80
2018-09-13T14:30:10.361Z,4.23
2018-09-13T14:35:42.617Z,4.30
2018-09-13T14:40:58.991Z,3.10
2018-09-13T14:43:29.831Z,3.20
2018-09-13T14:46:00.877Z,3.93
2018-09-13T14:48:31.696Z,3.90
2018-09-13T14:51:03.055Z,4.40
2018-09-13T14:53:34.352Z,4.10
2018-09-13T14:56:05.095Z,3.87
2018-09-13T14:58:35.862Z,3.40
2018-09-13T15:01:06.830Z,3.10
2018-09-13T15:03:37.553Z,3.67
2018-09-13T15:06:09.037Z,4.10
2018-09-13T15:08:39.796Z,4.50
2018-09-13T15:11:10.543Z,4.23
2018-09-13T15:13:41.262Z,3.20
2018-09-13T15:16:11.976Z,3.37
2018-09-13T15:18:43.327Z,3.10
2018-09-13T15:21:14.103Z,2.70
2018-09-13T15:23:44.893Z,3.10
2018-09-13T15:26:15.712Z,3.13
2018-09-13T15:28:46.489Z,3.50
2018-09-13T15:31:17.328Z,3.13
2018-09-13T15:33:48.084Z,3.07
2018-09-13T15:36:18.813Z,3.03
2018-09-13T15:38:49.510Z,2.43
2018-09-13T15:41:20.217Z,2.40
2018-09-13T15:43:51.416Z,2.87
2018-09-13T15:46:22.164Z,3.37
2018-09-13T15:48:52.910Z,2.47
2018-09-13T15:51:23.662Z,2.33
2018-09-13T15:53:54.406Z,2.10
2018-09-13T15:56:25.184Z,2.70
2018-09-13T15:58:56.001Z,2.30
2018-09-13T16:01:26.734Z,2.30
2018-09-13T16:03:57.446Z,2.30
2018-09-13T16:06:28.264Z,2.87
2018-09-13T16:08:59.014Z,2.77
2018-09-13T16:11:29.745Z,2.80
2018-09-13T16:14:00.508Z,2.40
2018-09-13T16:16:32.820Z,2.10
2018-09-13T16:19:05.394Z,2.03
2018-09-13T16:21:36.427Z,2.20
2018-09-13T16:24:07.377Z,2.10
2018-09-13T16:26:38.786Z,2.00
2018-09-13T16:29:09.641Z,1.77
2018-09-13T16:31:40.453Z,1.90
2018-09-13T16:34:11.317Z,2.80
2018-09-13T16:36:47.303Z,1.80
2018-09-13T16:39:27.037Z,1.53
2018-09-13T16:42:03.225Z,1.80
2018-09-13T16:44:40.792Z,1.60
2018-09-13T16:47:17.277Z,2.30
2018-09-13T16:49:48.144Z,2.17
2018-09-13T16:52:19.806Z,1.87
2018-09-13T16:54:50.725Z,1.80
2018-09-13T16:57:21.593Z,2.10
2018-09-13T16:59:52.632Z,2.30
2018-09-13T17:02:23.655Z,1.53
2018-09-13T17:04:54.477Z,2.13
2018-09-13T17:07:25.390Z,2.10
2018-09-13T17:09:56.120Z,1.70
2018-09-13T17:12:26.878Z,1.70
2018-09-13T17:14:57.849Z,1.97
2018-09-13T17:17:28.756Z,1.70
2018-09-13T17:19:59.646Z,1.83
2018-09-13T17:22:30.461Z,2.10
2018-09-13T17:25:01.196Z,2.10
2018-09-13T17:27:31.992Z,1.90
2018-09-13T17:30:02.787Z,2.00
2018-09-13T17:32:33.647Z,2.00
2018-09-13T17:35:04.560Z,2.37
2018-09-13T17:37:35.254Z,2.40
2018-09-13T17:40:06.076Z,2.10
2018-09-13T17:42:36.792Z,1.93
2018-09-13T17:45:07.609Z,1.70
2018-09-13T17:47:38.417Z,2.20
2018-09-13T17:50:09.237Z,2.10
2018-09-13T17:52:39.897Z,2.00
2018-09-13T17:55:10.619Z,2.03
2018-09-13T17:57:41.412Z,1.90
2018-09-13T18:00:13.628Z,2.27
2018-09-13T18:02:44.407Z,2.90
2018-09-13T18:05:15.175Z,2.50
2018-09-13T18:07:45.979Z,2.77
2018-09-13T18:10:16.706Z,2.50
2018-09-13T18:12:47.530Z,2.90
2018-09-13T18:15:18.545Z,3.00
2018-09-13T18:17:49.627Z,2.80
2018-09-13T18:20:21.398Z,3.10
2018-09-13T18:22:52.276Z,3.20
2018-09-13T18:25:23.039Z,2.80
2018-09-13T18:27:53.836Z,3.00
2018-09-13T18:30:24.727Z,2.77
2018-09-13T18:32:55.487Z,3.10
2018-09-13T18:35:26.317Z,3.13
2018-09-13T18:37:57.098Z,2.80
2018-09-13T18:40:28.024Z,3.50
2018-09-13T18:42:58.821Z,4.83
2018-09-13T18:46:00.754Z,3.93
2018-09-13T18:48:31.564Z,3.70
2018-09-13T18:51:02.378Z,4.30
2018-09-13T18:53:33.189Z,4.67
2018-09-13T18:56:04.018Z,4.50
2018-09-13T18:58:35.023Z,4.50
2018-09-13T19:01:05.869Z,4.53
2018-09-13T19:03:36.576Z,5.30
2018-09-13T19:06:07.834Z,5.40
2018-09-13T19:08:38.580Z,4.63
2018-09-13T19:11:09.906Z,5.30
2018-09-13T19:13:40.650Z,5.80
2018-09-13T19:16:11.699Z,5.33
2018-09-13T19:18:42.432Z,5.57
2018-09-13T19:21:13.259Z,5.40
2018-09-13T19:23:43.960Z,5.33
2018-09-13T19:26:14.721Z,4.90
2018-09-13T19:28:45.421Z,4.53
2018-09-13T19:31:16.220Z,5.30
2018-09-13T19:33:47.213Z,5.00
2018-09-13T19:36:18.341Z,5.00
2018-09-13T19:38:49.540Z,5.03
2018-09-13T19:41:20.442Z,5.17
2018-09-13T19:43:52.127Z,5.43
2018-09-13T19:46:22.888Z,7.00
2018-09-13T19:48:53.644Z,6.27
2018-09-13T19:51:24.403Z,6.00
2018-09-13T19:53:56.241Z,5.83
2018-09-13T19:56:27.018Z,5.13
2018-09-13T19:58:58.226Z,5.27
2018-09-13T20:01:28.940Z,5.07
2018-09-13T20:03:59.847Z,4.90
2018-09-13T20:06:31.514Z,5.07
2018-09-13T20:09:09.798Z,4.97
2018-09-13T20:11:40.662Z,5.33
2018-09-13T20:14:11.499Z,5.50
2018-09-13T20:16:42.337Z,5.57
2018-09-13T20:19:13.176Z,6.40
2018-09-13T20:21:43.934Z,7.60
2018-09-13T20:24:14.768Z,7.40
2018-09-13T20:26:45.710Z,7.10
2018-09-13T20:29:16.588Z,6.57
2018-09-13T20:31:47.338Z,6.90
2018-09-13T20:34:18.287Z,7.37
2018-09-13T20:36:49.117Z,7.23
2018-09-13T20:39:19.943Z,10.80
2018-09-13T20:41:50.837Z,29.97
2018-09-13T20:44:21.513Z,26.73
2018-09-13T20:46:52.240Z,17.63
2018-09-13T20:49:22.994Z,12.17
2018-09-13T20:51:53.690Z,9.23
2018-09-13T20:54:24.444Z,8.83
2018-09-13T20:56:55.508Z,8.17
2018-09-13T20:59:26.309Z,8.20
2018-09-13T21:01:57.052Z,7.77
2018-09-13T21:04:27.827Z,9.27
2018-09-13T21:06:58.574Z,11.47
2018-09-13T21:09:29.305Z,9.80
2018-09-13T21:12:00.065Z,9.27
2018-09-13T21:14:30.838Z,9.80
2018-09-13T21:17:01.635Z,9.83
2018-09-13T21:19:33.097Z,9.53
2018-09-13T21:22:03.969Z,9.50
2018-09-13T21:24:34.832Z,9.97
2018-09-13T21:27:05.576Z,10.53
2018-09-13T21:29:36.490Z,11.20
2018-09-13T21:32:07.378Z,11.80
2018-09-13T21:34:38.140Z,13.93
2018-09-13T21:37:09.241Z,11.70
2018-09-13T21:39:40.003Z,12.00
2018-09-13T21:42:10.765Z,10.87
2018-09-13T21:44:41.575Z,11.00
2018-09-13T21:47:12.295Z,11.27
2018-09-13T21:49:43.081Z,12.93
2018-09-13T21:52:13.905Z,11.97
2018-09-13T21:54:44.670Z,11.73
2018-09-13T21:57:15.503Z,12.57
2018-09-13T21:59:46.300Z,11.97
2018-09-13T22:02:17.066Z,12.70
2018-09-13T22:04:48.043Z,12.10
2018-09-13T22:07:19.882Z,12.40
2018-09-13T22:09:50.712Z,12.10
2018-09-13T22:12:21.626Z,12.20
2018-09-13T22:14:52.422Z,11.93
2018-09-13T22:17:27.153Z,12.07
2018-09-13T22:19:57.825Z,13.13
2018-09-13T22:22:28.720Z,12.23
2018-09-13T22:24:59.481Z,12.70
2018-09-13T22:27:30.277Z,12.73
2018-09-13T22:30:00.997Z,11.57
2018-09-13T22:32:31.765Z,11.67
2018-09-13T22:35:02.489Z,10.77
2018-09-13T22:37:33.700Z,11.07
2018-09-13T22:40:04.590Z,11.83
2018-09-13T22:42:35.482Z,12.10
2018-09-13T22:45:06.292Z,11.30
2018-09-13T22:47:37.064Z,11.47
2018-09-13T22:50:07.938Z,12.57
2018-09-13T22:52:38.657Z,11.93
2018-09-13T22:55:09.438Z,10.73
2018-09-13T22:57:40.250Z,10.83
2018-09-13T23:00:11.016Z,11.20
2018-09-13T23:02:46.951Z,10.93
2018-09-13T23:05:18.940Z,10.60
2018-09-13T23:07:49.711Z,10.60
2018-09-13T23:10:20.478Z,10.37
2018-09-13T23:12:51.289Z,10.30
2018-09-13T23:15:22.075Z,10.00
2018-09-13T23:17:52.846Z,10.27
2018-09-13T23:20:23.763Z,9.23
2018-09-13T23:22:54.471Z,10.03
2018-09-13T23:25:25.306Z,10.53
2018-09-13T23:27:56.017Z,9.67
2018-09-13T23:30:27.278Z,9.97
2018-09-13T23:32:58.048Z,9.43
2018-09-13T23:35:28.896Z,8.67
2018-09-13T23:37:59.668Z,9.47
2018-09-13T23:40:30.524Z,9.27
2018-09-13T23:43:01.262Z,9.03
2018-09-13T23:45:32.044Z,9.70
2018-09-13T23:48:02.832Z,8.50
2018-09-13T23:50:33.594Z,8.57
2018-09-13T23:53:04.293Z,8.40
2018-09-13T23:55:35.073Z,8.07
2018-09-13T23:58:06.052Z,7.27
